CFMGP CYGW-CYVO
Flight info
| Callsign | CFMGP |
|---|---|
| Flight time | 1h 38m |
| Altitude | 26000 |
| Route | YGL YVO |
| Aircraft | B350/L-SBGRWY/S |
Departure
| Time | 2026-05-05 12:28 |
|---|---|
| Airport | Kuujjuarapik Airport (CYGW) |
Arrival
| Time | 2026-05-05 14:07 |
|---|---|
| Airport | Val-d'Or Airport (CYVO) |
| Time | Latitude | Longitude | Altitude | Speed | Heading |
|---|---|---|---|---|---|
| 2026-05-05 12:12 | 55.28381 | -77.76138 | 26 ft | 0 kts | 123° |
| 2026-05-05 12:24 | 55.28379 | -77.76132 | 39 ft | 4 kts | 123° |
| 2026-05-05 12:24 | 55.28355 | -77.76070 | 44 ft | 8 kts | 134° |
| 2026-05-05 12:24 | 55.28272 | -77.76080 | 47 ft | 16 kts | 250° |
| 2026-05-05 12:25 | 55.28329 | -77.76305 | 34 ft | 23 kts | 298° |
| 2026-05-05 12:25 | 55.28305 | -77.76457 | 31 ft | 16 kts | 195° |
| 2026-05-05 12:25 | 55.28205 | -77.76518 | 34 ft | 14 kts | 196° |
| 2026-05-05 12:25 | 55.28116 | -77.76564 | 38 ft | 13 kts | 198° |
| 2026-05-05 12:26 | 55.28031 | -77.76612 | 39 ft | 16 kts | 198° |
| 2026-05-05 12:26 | 55.27890 | -77.76681 | 40 ft | 24 kts | 194° |
| 2026-05-05 12:26 | 55.27727 | -77.76768 | 40 ft | 23 kts | 201° |
| 2026-05-05 12:26 | 55.27587 | -77.76877 | 35 ft | 20 kts | 201° |
| 2026-05-05 12:27 | 55.27509 | -77.76913 | 35 ft | 2 kts | 40° |
| 2026-05-05 12:27 | 55.27516 | -77.76910 | 35 ft | 0 kts | 17° |
| 2026-05-05 12:28 | 55.27728 | -77.76788 | 39 ft | 74 kts | 18° |
| 2026-05-05 12:28 | 55.28419 | -77.76440 | 100 ft | 124 kts | 17° |
| 2026-05-05 12:28 | 55.29323 | -77.76075 | 450 ft | 146 kts | 19° |
| 2026-05-05 12:28 | 55.30365 | -77.75627 | 757 ft | 157 kts | 30° |
| 2026-05-05 12:29 | 55.31077 | -77.74355 | 1308 ft | 141 kts | 81° |
| 2026-05-05 12:29 | 55.31011 | -77.72744 | 1842 ft | 132 kts | 123° |
| 2026-05-05 12:29 | 55.30317 | -77.71760 | 2340 ft | 138 kts | 159° |
| 2026-05-05 12:29 | 55.29332 | -77.71925 | 2862 ft | 156 kts | 196° |
| 2026-05-05 12:30 | 55.28416 | -77.73102 | 3373 ft | 168 kts | 210° |
| 2026-05-05 12:30 | 55.27516 | -77.74429 | 3925 ft | 168 kts | 205° |
| 2026-05-05 12:30 | 55.26494 | -77.75379 | 4410 ft | 165 kts | 190° |
| 2026-05-05 12:30 | 55.25398 | -77.75899 | 4919 ft | 162 kts | 180° |
| 2026-05-05 12:31 | 55.24285 | -77.76154 | 5422 ft | 161 kts | 175° |
| 2026-05-05 12:31 | 55.23160 | -77.76261 | 5899 ft | 162 kts | 172° |
| 2026-05-05 12:31 | 55.22029 | -77.76288 | 6402 ft | 162 kts | 171° |
| 2026-05-05 12:31 | 55.20909 | -77.76281 | 6900 ft | 163 kts | 171° |
| 2026-05-05 12:32 | 55.19770 | -77.76253 | 7399 ft | 164 kts | 171° |
| 2026-05-05 12:32 | 55.18621 | -77.76222 | 7903 ft | 166 kts | 172° |
| 2026-05-05 12:32 | 55.17461 | -77.76189 | 8406 ft | 167 kts | 172° |
| 2026-05-05 12:32 | 55.16291 | -77.76153 | 8912 ft | 169 kts | 172° |
| 2026-05-05 12:33 | 55.15110 | -77.76114 | 9417 ft | 170 kts | 173° |
| 2026-05-05 12:33 | 55.13913 | -77.76079 | 9873 ft | 172 kts | 173° |
| 2026-05-05 12:33 | 55.12706 | -77.76043 | 10331 ft | 174 kts | 174° |
| 2026-05-05 12:33 | 55.11491 | -77.76006 | 10781 ft | 176 kts | 174° |
| 2026-05-05 12:34 | 55.10260 | -77.75968 | 11241 ft | 178 kts | 174° |
| 2026-05-05 12:34 | 55.09020 | -77.75930 | 11704 ft | 179 kts | 174° |
| 2026-05-05 12:34 | 55.07782 | -77.75892 | 12211 ft | 181 kts | 174° |
| 2026-05-05 12:34 | 55.06516 | -77.75853 | 12721 ft | 183 kts | 174° |
| 2026-05-05 12:35 | 55.05236 | -77.75814 | 13227 ft | 185 kts | 174° |
| 2026-05-05 12:35 | 55.03945 | -77.75774 | 13670 ft | 187 kts | 174° |
| 2026-05-05 12:35 | 55.02637 | -77.75736 | 14115 ft | 188 kts | 174° |
| 2026-05-05 12:35 | 55.01319 | -77.75696 | 14563 ft | 190 kts | 174° |
| 2026-05-05 12:36 | 54.99989 | -77.75655 | 15005 ft | 192 kts | 174° |
| 2026-05-05 12:36 | 54.98642 | -77.75613 | 15454 ft | 194 kts | 174° |
| 2026-05-05 12:36 | 54.97302 | -77.75572 | 15891 ft | 196 kts | 173° |
| 2026-05-05 12:36 | 54.95933 | -77.75530 | 16340 ft | 198 kts | 173° |
| 2026-05-05 12:37 | 54.94548 | -77.75489 | 16786 ft | 199 kts | 173° |
| 2026-05-05 12:37 | 54.93152 | -77.75447 | 17223 ft | 201 kts | 173° |
| 2026-05-05 12:37 | 54.91745 | -77.75405 | 17672 ft | 203 kts | 173° |
| 2026-05-05 12:37 | 54.90329 | -77.75362 | 18054 ft | 204 kts | 173° |
| 2026-05-05 12:38 | 54.88909 | -77.75321 | 18428 ft | 204 kts | 172° |
| 2026-05-05 12:38 | 54.87488 | -77.75278 | 18811 ft | 205 kts | 172° |
| 2026-05-05 12:38 | 54.86075 | -77.75236 | 19189 ft | 205 kts | 172° |
| 2026-05-05 12:38 | 54.84648 | -77.75192 | 19559 ft | 206 kts | 172° |
| 2026-05-05 12:39 | 54.83216 | -77.75149 | 19931 ft | 206 kts | 172° |
| 2026-05-05 12:39 | 54.81781 | -77.75106 | 20308 ft | 206 kts | 172° |
| 2026-05-05 12:39 | 54.80340 | -77.75063 | 20680 ft | 207 kts | 172° |
| 2026-05-05 12:39 | 54.78892 | -77.75019 | 21028 ft | 208 kts | 172° |
| 2026-05-05 12:40 | 54.77441 | -77.74976 | 21380 ft | 209 kts | 171° |
| 2026-05-05 12:40 | 54.75987 | -77.74931 | 21738 ft | 209 kts | 171° |
| 2026-05-05 12:40 | 54.74528 | -77.74886 | 22080 ft | 210 kts | 171° |
| 2026-05-05 12:40 | 54.73064 | -77.74842 | 22429 ft | 211 kts | 171° |
| 2026-05-05 12:41 | 54.71615 | -77.74799 | 22767 ft | 211 kts | 171° |
| 2026-05-05 12:41 | 54.70142 | -77.74754 | 23074 ft | 212 kts | 171° |
| 2026-05-05 12:41 | 54.68664 | -77.74708 | 23371 ft | 213 kts | 171° |
| 2026-05-05 12:41 | 54.67175 | -77.74661 | 23704 ft | 214 kts | 171° |
| 2026-05-05 12:42 | 54.65677 | -77.74615 | 24029 ft | 216 kts | 171° |
| 2026-05-05 12:42 | 54.64168 | -77.74569 | 24350 ft | 217 kts | 171° |
| 2026-05-05 12:42 | 54.62671 | -77.74525 | 24666 ft | 219 kts | 171° |
| 2026-05-05 12:42 | 54.61142 | -77.74479 | 24974 ft | 220 kts | 171° |
| 2026-05-05 12:43 | 54.59602 | -77.74433 | 25284 ft | 222 kts | 171° |
| 2026-05-05 12:43 | 54.58022 | -77.74379 | 25345 ft | 234 kts | 171° |
| 2026-05-05 12:43 | 54.56351 | -77.74319 | 25355 ft | 245 kts | 172° |
| 2026-05-05 12:43 | 54.54611 | -77.74263 | 25360 ft | 255 kts | 172° |
| 2026-05-05 12:44 | 54.52800 | -77.74210 | 25366 ft | 264 kts | 172° |
| 2026-05-05 12:44 | 54.50938 | -77.74158 | 25366 ft | 270 kts | 173° |
| 2026-05-05 12:44 | 54.49040 | -77.74108 | 25363 ft | 276 kts | 173° |
| 2026-05-05 12:44 | 54.47126 | -77.74057 | 25364 ft | 280 kts | 173° |
| 2026-05-05 12:45 | 54.45165 | -77.74005 | 25365 ft | 284 kts | 173° |
| 2026-05-05 12:45 | 54.43181 | -77.73951 | 25363 ft | 286 kts | 173° |
| 2026-05-05 12:45 | 54.41182 | -77.73896 | 25363 ft | 289 kts | 173° |
| 2026-05-05 12:45 | 54.39169 | -77.73841 | 25363 ft | 290 kts | 173° |
| 2026-05-05 12:46 | 54.37135 | -77.73784 | 25360 ft | 292 kts | 173° |
| 2026-05-05 12:46 | 54.35098 | -77.73725 | 25353 ft | 293 kts | 173° |
| 2026-05-05 12:46 | 54.33043 | -77.73667 | 25356 ft | 294 kts | 173° |
| 2026-05-05 12:46 | 54.30993 | -77.73608 | 25358 ft | 295 kts | 173° |
| 2026-05-05 12:47 | 54.28963 | -77.73550 | 25357 ft | 296 kts | 173° |
| 2026-05-05 12:47 | 54.26909 | -77.73491 | 25361 ft | 296 kts | 173° |
| 2026-05-05 12:47 | 54.24842 | -77.73431 | 25357 ft | 296 kts | 174° |
| 2026-05-05 12:47 | 54.22779 | -77.73371 | 25357 ft | 296 kts | 174° |
| 2026-05-05 12:48 | 54.20719 | -77.73312 | 25357 ft | 297 kts | 174° |
| 2026-05-05 12:48 | 54.18647 | -77.73250 | 25356 ft | 297 kts | 174° |
| 2026-05-05 12:48 | 54.16578 | -77.73190 | 25355 ft | 298 kts | 174° |
| 2026-05-05 12:48 | 54.14506 | -77.73130 | 25356 ft | 298 kts | 174° |
| 2026-05-05 12:49 | 54.12433 | -77.73070 | 25353 ft | 298 kts | 174° |
| 2026-05-05 12:49 | 54.10379 | -77.73010 | 25357 ft | 298 kts | 174° |
| 2026-05-05 12:49 | 54.08298 | -77.72950 | 25354 ft | 299 kts | 174° |
| 2026-05-05 12:49 | 54.06217 | -77.72889 | 25356 ft | 299 kts | 175° |
| 2026-05-05 12:50 | 54.04139 | -77.72829 | 25357 ft | 299 kts | 175° |
| 2026-05-05 12:50 | 54.02060 | -77.72768 | 25356 ft | 299 kts | 175° |
| 2026-05-05 12:50 | 53.99974 | -77.72708 | 25355 ft | 300 kts | 175° |
| 2026-05-05 12:50 | 53.97886 | -77.72648 | 25354 ft | 300 kts | 175° |
| 2026-05-05 12:51 | 53.95798 | -77.72587 | 25354 ft | 300 kts | 175° |
| 2026-05-05 12:51 | 53.93711 | -77.72527 | 25350 ft | 300 kts | 175° |
| 2026-05-05 12:51 | 53.91620 | -77.72467 | 25347 ft | 300 kts | 175° |
| 2026-05-05 12:51 | 53.89534 | -77.72407 | 25346 ft | 300 kts | 176° |
| 2026-05-05 12:52 | 53.87443 | -77.72347 | 25341 ft | 301 kts | 176° |
| 2026-05-05 12:52 | 53.85343 | -77.72287 | 25340 ft | 301 kts | 176° |
| 2026-05-05 12:52 | 53.83276 | -77.72228 | 25336 ft | 301 kts | 176° |
| 2026-05-05 12:52 | 53.81183 | -77.72168 | 25335 ft | 301 kts | 176° |
| 2026-05-05 12:53 | 53.79085 | -77.72107 | 25334 ft | 301 kts | 176° |
| 2026-05-05 12:53 | 53.76987 | -77.72047 | 25328 ft | 302 kts | 177° |
| 2026-05-05 12:53 | 53.74888 | -77.71987 | 25328 ft | 302 kts | 177° |
| 2026-05-05 12:53 | 53.72783 | -77.71927 | 25327 ft | 302 kts | 177° |
| 2026-05-05 12:54 | 53.68581 | -77.71808 | 25324 ft | 302 kts | 178° |
| 2026-05-05 12:54 | 53.66474 | -77.71748 | 25324 ft | 302 kts | 178° |
| 2026-05-05 12:54 | 53.64375 | -77.71689 | 25324 ft | 302 kts | 178° |
| 2026-05-05 12:55 | 53.62276 | -77.71629 | 25326 ft | 302 kts | 178° |
| 2026-05-05 12:55 | 53.60201 | -77.71612 | 25325 ft | 302 kts | 179° |
| 2026-05-05 12:55 | 53.58094 | -77.71659 | 25324 ft | 302 kts | 180° |
| 2026-05-05 12:55 | 53.55995 | -77.71723 | 25323 ft | 302 kts | 180° |
| 2026-05-05 12:56 | 53.53891 | -77.71787 | 25324 ft | 302 kts | 180° |
| 2026-05-05 12:56 | 53.51791 | -77.71847 | 25326 ft | 302 kts | 180° |
| 2026-05-05 12:56 | 53.49688 | -77.71902 | 25329 ft | 302 kts | 180° |
| 2026-05-05 12:56 | 53.47587 | -77.71953 | 25329 ft | 302 kts | 180° |
| 2026-05-05 12:57 | 53.45513 | -77.72001 | 25331 ft | 302 kts | 180° |
| 2026-05-05 12:57 | 53.43412 | -77.72047 | 25332 ft | 301 kts | 180° |
| 2026-05-05 12:57 | 53.41311 | -77.72093 | 25335 ft | 301 kts | 180° |
| 2026-05-05 12:57 | 53.39215 | -77.72138 | 25336 ft | 301 kts | 180° |
| 2026-05-05 12:58 | 53.37822 | -77.72168 | 25337 ft | 301 kts | 180° |
| 2026-05-05 12:58 | 53.35730 | -77.72213 | 25338 ft | 301 kts | 180° |
| 2026-05-05 12:58 | 53.33638 | -77.72258 | 25340 ft | 301 kts | 180° |
| 2026-05-05 12:58 | 53.30863 | -77.72317 | 25342 ft | 301 kts | 180° |
| 2026-05-05 12:59 | 53.29452 | -77.72347 | 25344 ft | 300 kts | 180° |
| 2026-05-05 12:59 | 53.27361 | -77.72391 | 25344 ft | 300 kts | 180° |
| 2026-05-05 12:59 | 53.25270 | -77.72435 | 25342 ft | 300 kts | 180° |
| 2026-05-05 13:00 | 53.21117 | -77.72523 | 25345 ft | 300 kts | 180° |
| 2026-05-05 13:00 | 53.19032 | -77.72567 | 25344 ft | 300 kts | 180° |
| 2026-05-05 13:01 | 53.12778 | -77.72699 | 25350 ft | 299 kts | 181° |
| 2026-05-05 13:01 | 53.10690 | -77.72744 | 25354 ft | 300 kts | 181° |
| 2026-05-05 13:01 | 53.08604 | -77.72789 | 25349 ft | 300 kts | 181° |
| 2026-05-05 13:01 | 53.06512 | -77.72833 | 25343 ft | 300 kts | 181° |
| 2026-05-05 13:02 | 53.04422 | -77.72876 | 25344 ft | 300 kts | 181° |
| 2026-05-05 13:02 | 53.02337 | -77.72920 | 25344 ft | 300 kts | 181° |
| 2026-05-05 13:02 | 53.00250 | -77.72963 | 25350 ft | 300 kts | 181° |
| 2026-05-05 13:02 | 52.98163 | -77.73007 | 25345 ft | 300 kts | 181° |
| 2026-05-05 13:03 | 52.96072 | -77.73051 | 25341 ft | 300 kts | 181° |
| 2026-05-05 13:03 | 52.93980 | -77.73094 | 25345 ft | 300 kts | 182° |
| 2026-05-05 13:03 | 52.91926 | -77.73137 | 25347 ft | 299 kts | 182° |
| 2026-05-05 13:03 | 52.89845 | -77.73181 | 25343 ft | 299 kts | 182° |
| 2026-05-05 13:04 | 52.87763 | -77.73225 | 25346 ft | 298 kts | 182° |
| 2026-05-05 13:04 | 52.85686 | -77.73267 | 25349 ft | 298 kts | 182° |
| 2026-05-05 13:04 | 52.83612 | -77.73310 | 25356 ft | 298 kts | 182° |
| 2026-05-05 13:04 | 52.81534 | -77.73354 | 25356 ft | 298 kts | 182° |
| 2026-05-05 13:05 | 52.79462 | -77.73397 | 25354 ft | 298 kts | 182° |
| 2026-05-05 13:05 | 52.77389 | -77.73440 | 25352 ft | 298 kts | 182° |
| 2026-05-05 13:05 | 52.75317 | -77.73483 | 25358 ft | 297 kts | 182° |
| 2026-05-05 13:05 | 52.73249 | -77.73526 | 25352 ft | 297 kts | 182° |
| 2026-05-05 13:06 | 52.71179 | -77.73568 | 25354 ft | 297 kts | 182° |
| 2026-05-05 13:06 | 52.69141 | -77.73611 | 25357 ft | 297 kts | 183° |
| 2026-05-05 13:06 | 52.67075 | -77.73654 | 25359 ft | 296 kts | 183° |
| 2026-05-05 13:06 | 52.65018 | -77.73696 | 25359 ft | 296 kts | 183° |
| 2026-05-05 13:07 | 52.62958 | -77.73738 | 25358 ft | 296 kts | 183° |
| 2026-05-05 13:07 | 52.60895 | -77.73781 | 25360 ft | 295 kts | 183° |
| 2026-05-05 13:07 | 52.58844 | -77.73823 | 25362 ft | 295 kts | 183° |
| 2026-05-05 13:07 | 52.56788 | -77.73865 | 25365 ft | 295 kts | 183° |
| 2026-05-05 13:08 | 52.54739 | -77.73908 | 25362 ft | 294 kts | 183° |
| 2026-05-05 13:08 | 52.52687 | -77.73949 | 25362 ft | 294 kts | 183° |
| 2026-05-05 13:08 | 52.50644 | -77.73991 | 25367 ft | 294 kts | 183° |
| 2026-05-05 13:08 | 52.48598 | -77.74034 | 25366 ft | 294 kts | 183° |
| 2026-05-05 13:09 | 52.46579 | -77.74075 | 25364 ft | 293 kts | 183° |
| 2026-05-05 13:09 | 52.44533 | -77.74117 | 25365 ft | 293 kts | 183° |
| 2026-05-05 13:09 | 52.42495 | -77.74158 | 25364 ft | 293 kts | 183° |
| 2026-05-05 13:09 | 52.40455 | -77.74200 | 25364 ft | 293 kts | 183° |
| 2026-05-05 13:10 | 52.38413 | -77.74241 | 25367 ft | 293 kts | 184° |
| 2026-05-05 13:10 | 52.36380 | -77.74283 | 25363 ft | 292 kts | 183° |
| 2026-05-05 13:10 | 52.34338 | -77.74324 | 25367 ft | 292 kts | 184° |
| 2026-05-05 13:10 | 52.32312 | -77.74366 | 25369 ft | 292 kts | 184° |
| 2026-05-05 13:11 | 52.30278 | -77.74407 | 25368 ft | 292 kts | 184° |
| 2026-05-05 13:11 | 52.28243 | -77.74448 | 25366 ft | 292 kts | 184° |
| 2026-05-05 13:11 | 52.26213 | -77.74490 | 25365 ft | 292 kts | 184° |
| 2026-05-05 13:11 | 52.24185 | -77.74531 | 25370 ft | 292 kts | 184° |
| 2026-05-05 13:12 | 52.22154 | -77.74572 | 25367 ft | 291 kts | 184° |
| 2026-05-05 13:12 | 52.20153 | -77.74613 | 25369 ft | 291 kts | 184° |
| 2026-05-05 13:12 | 52.18126 | -77.74654 | 25370 ft | 291 kts | 184° |
| 2026-05-05 13:12 | 52.16094 | -77.74695 | 25372 ft | 291 kts | 184° |
| 2026-05-05 13:13 | 52.14067 | -77.74735 | 25371 ft | 291 kts | 184° |
| 2026-05-05 13:13 | 52.12043 | -77.74776 | 25374 ft | 291 kts | 184° |
| 2026-05-05 13:13 | 52.10012 | -77.74817 | 25375 ft | 291 kts | 184° |
| 2026-05-05 13:13 | 52.07990 | -77.74858 | 25373 ft | 291 kts | 184° |
| 2026-05-05 13:14 | 52.05968 | -77.74899 | 25373 ft | 291 kts | 184° |
| 2026-05-05 13:14 | 52.03936 | -77.74939 | 25376 ft | 291 kts | 184° |
| 2026-05-05 13:14 | 52.01915 | -77.74980 | 25375 ft | 291 kts | 184° |
| 2026-05-05 13:14 | 51.99892 | -77.75021 | 25378 ft | 291 kts | 184° |
| 2026-05-05 13:15 | 51.97866 | -77.75062 | 25377 ft | 291 kts | 184° |
| 2026-05-05 13:15 | 51.95874 | -77.75101 | 25378 ft | 291 kts | 184° |
| 2026-05-05 13:15 | 51.93853 | -77.75141 | 25378 ft | 291 kts | 184° |
| 2026-05-05 13:15 | 51.91828 | -77.75182 | 25379 ft | 291 kts | 184° |
| 2026-05-05 13:16 | 51.89805 | -77.75223 | 25380 ft | 291 kts | 184° |
| 2026-05-05 13:16 | 51.87783 | -77.75263 | 25378 ft | 291 kts | 184° |
| 2026-05-05 13:16 | 51.85753 | -77.75303 | 25378 ft | 291 kts | 184° |
| 2026-05-05 13:16 | 51.83729 | -77.75343 | 25379 ft | 291 kts | 184° |
| 2026-05-05 13:17 | 51.81711 | -77.75383 | 25378 ft | 291 kts | 184° |
| 2026-05-05 13:17 | 51.79679 | -77.75424 | 25378 ft | 291 kts | 184° |
| 2026-05-05 13:17 | 51.77655 | -77.75464 | 25382 ft | 291 kts | 184° |
| 2026-05-05 13:17 | 51.75633 | -77.75504 | 25385 ft | 291 kts | 184° |
| 2026-05-05 13:18 | 51.73638 | -77.75543 | 25384 ft | 290 kts | 184° |
| 2026-05-05 13:18 | 51.71613 | -77.75584 | 25385 ft | 290 kts | 184° |
| 2026-05-05 13:18 | 51.69587 | -77.75624 | 25384 ft | 291 kts | 184° |
| 2026-05-05 13:18 | 51.67560 | -77.75664 | 25383 ft | 291 kts | 184° |
| 2026-05-05 13:19 | 51.65542 | -77.75704 | 25384 ft | 290 kts | 184° |
| 2026-05-05 13:19 | 51.63509 | -77.75744 | 25383 ft | 290 kts | 184° |
| 2026-05-05 13:19 | 51.61486 | -77.75784 | 25388 ft | 290 kts | 184° |
| 2026-05-05 13:19 | 51.59463 | -77.75824 | 25389 ft | 290 kts | 184° |
| 2026-05-05 13:20 | 51.57443 | -77.75863 | 25391 ft | 290 kts | 184° |
| 2026-05-05 13:20 | 51.55421 | -77.75903 | 25389 ft | 290 kts | 184° |
| 2026-05-05 13:20 | 51.53424 | -77.75943 | 25388 ft | 290 kts | 184° |
| 2026-05-05 13:20 | 51.51402 | -77.75982 | 25388 ft | 290 kts | 184° |
| 2026-05-05 13:21 | 51.49383 | -77.76022 | 25388 ft | 290 kts | 184° |
| 2026-05-05 13:21 | 51.47362 | -77.76061 | 25393 ft | 290 kts | 184° |
| 2026-05-05 13:21 | 51.45333 | -77.76101 | 25393 ft | 291 kts | 184° |
| 2026-05-05 13:21 | 51.43311 | -77.76140 | 25393 ft | 291 kts | 184° |
| 2026-05-05 13:22 | 51.41291 | -77.76180 | 25394 ft | 291 kts | 184° |
| 2026-05-05 13:22 | 51.39267 | -77.76220 | 25395 ft | 291 kts | 184° |
| 2026-05-05 13:22 | 51.37242 | -77.76259 | 25396 ft | 291 kts | 184° |
| 2026-05-05 13:22 | 51.35216 | -77.76299 | 25397 ft | 291 kts | 184° |
| 2026-05-05 13:23 | 51.33213 | -77.76338 | 25397 ft | 291 kts | 184° |
| 2026-05-05 13:23 | 51.31162 | -77.76378 | 25397 ft | 291 kts | 184° |
| 2026-05-05 13:23 | 51.29169 | -77.76416 | 25398 ft | 291 kts | 184° |
| 2026-05-05 13:23 | 51.27115 | -77.76456 | 25395 ft | 291 kts | 185° |
| 2026-05-05 13:24 | 51.25125 | -77.76494 | 25399 ft | 291 kts | 185° |
| 2026-05-05 13:24 | 51.23099 | -77.76534 | 25397 ft | 291 kts | 185° |
| 2026-05-05 13:24 | 51.21081 | -77.76573 | 25398 ft | 291 kts | 185° |
| 2026-05-05 13:24 | 51.19052 | -77.76612 | 25400 ft | 290 kts | 185° |
| 2026-05-05 13:25 | 51.17028 | -77.76651 | 25400 ft | 290 kts | 185° |
| 2026-05-05 13:25 | 51.15007 | -77.76691 | 25401 ft | 290 kts | 185° |
| 2026-05-05 13:25 | 51.12986 | -77.76729 | 25402 ft | 290 kts | 185° |
| 2026-05-05 13:25 | 51.10963 | -77.76768 | 25407 ft | 290 kts | 185° |
| 2026-05-05 13:26 | 51.08967 | -77.76809 | 25406 ft | 290 kts | 186° |
| 2026-05-05 13:26 | 51.06949 | -77.76913 | 25403 ft | 290 kts | 186° |
| 2026-05-05 13:26 | 51.04935 | -77.76996 | 25403 ft | 290 kts | 186° |
| 2026-05-05 13:26 | 51.02918 | -77.77041 | 25405 ft | 290 kts | 185° |
| 2026-05-05 13:27 | 51.00895 | -77.77079 | 25409 ft | 290 kts | 185° |
| 2026-05-05 13:27 | 50.98876 | -77.77116 | 25413 ft | 290 kts | 185° |
| 2026-05-05 13:27 | 50.96860 | -77.77157 | 25409 ft | 289 kts | 186° |
| 2026-05-05 13:27 | 50.94850 | -77.77201 | 25407 ft | 289 kts | 186° |
| 2026-05-05 13:28 | 50.92837 | -77.77247 | 25409 ft | 289 kts | 186° |
| 2026-05-05 13:28 | 50.90847 | -77.77294 | 25407 ft | 289 kts | 186° |
| 2026-05-05 13:28 | 50.88837 | -77.77342 | 25410 ft | 289 kts | 186° |
| 2026-05-05 13:28 | 50.86824 | -77.77391 | 25411 ft | 289 kts | 186° |
| 2026-05-05 13:29 | 50.84817 | -77.77440 | 25410 ft | 288 kts | 186° |
| 2026-05-05 13:29 | 50.82811 | -77.77489 | 25411 ft | 288 kts | 186° |
| 2026-05-05 13:29 | 50.80800 | -77.77538 | 25416 ft | 288 kts | 186° |
| 2026-05-05 13:29 | 50.78797 | -77.77587 | 25416 ft | 288 kts | 186° |
| 2026-05-05 13:30 | 50.76791 | -77.77635 | 25417 ft | 288 kts | 186° |
| 2026-05-05 13:30 | 50.74787 | -77.77684 | 25422 ft | 288 kts | 186° |
| 2026-05-05 13:30 | 50.72782 | -77.77732 | 25419 ft | 288 kts | 187° |
| 2026-05-05 13:30 | 50.70780 | -77.77781 | 25422 ft | 287 kts | 187° |
| 2026-05-05 13:31 | 50.68777 | -77.77829 | 25420 ft | 287 kts | 187° |
| 2026-05-05 13:31 | 50.66805 | -77.77877 | 25422 ft | 287 kts | 187° |
| 2026-05-05 13:31 | 50.64808 | -77.77925 | 25426 ft | 287 kts | 187° |
| 2026-05-05 13:31 | 50.62816 | -77.77974 | 25424 ft | 286 kts | 187° |
| 2026-05-05 13:32 | 50.60826 | -77.78022 | 25427 ft | 286 kts | 187° |
| 2026-05-05 13:32 | 50.58835 | -77.78070 | 25426 ft | 286 kts | 187° |
| 2026-05-05 13:32 | 50.56848 | -77.78117 | 25429 ft | 285 kts | 187° |
| 2026-05-05 13:32 | 50.54857 | -77.78166 | 25432 ft | 285 kts | 187° |
| 2026-05-05 13:33 | 50.52872 | -77.78214 | 25430 ft | 285 kts | 187° |
| 2026-05-05 13:33 | 50.50886 | -77.78262 | 25434 ft | 285 kts | 187° |
| 2026-05-05 13:33 | 50.48905 | -77.78309 | 25433 ft | 285 kts | 187° |
| 2026-05-05 13:33 | 50.46925 | -77.78357 | 25435 ft | 284 kts | 187° |
| 2026-05-05 13:34 | 50.44975 | -77.78403 | 25441 ft | 284 kts | 187° |
| 2026-05-05 13:34 | 50.43002 | -77.78450 | 25439 ft | 284 kts | 187° |
| 2026-05-05 13:34 | 50.41026 | -77.78497 | 25441 ft | 283 kts | 188° |
| 2026-05-05 13:34 | 50.39051 | -77.78545 | 25442 ft | 283 kts | 188° |
| 2026-05-05 13:35 | 50.37086 | -77.78591 | 25445 ft | 283 kts | 188° |
| 2026-05-05 13:35 | 50.35121 | -77.78638 | 25442 ft | 282 kts | 188° |
| 2026-05-05 13:35 | 50.33157 | -77.78685 | 25442 ft | 282 kts | 188° |
| 2026-05-05 13:35 | 50.31196 | -77.78732 | 25442 ft | 281 kts | 188° |
| 2026-05-05 13:36 | 50.29235 | -77.78779 | 25444 ft | 281 kts | 188° |
| 2026-05-05 13:36 | 50.27304 | -77.78824 | 25448 ft | 281 kts | 188° |
| 2026-05-05 13:36 | 50.25352 | -77.78871 | 25449 ft | 280 kts | 188° |
| 2026-05-05 13:36 | 50.23405 | -77.78917 | 25451 ft | 280 kts | 188° |
| 2026-05-05 13:37 | 50.21459 | -77.78963 | 25445 ft | 279 kts | 188° |
| 2026-05-05 13:37 | 50.19517 | -77.79009 | 25451 ft | 279 kts | 188° |
| 2026-05-05 13:37 | 50.17578 | -77.79055 | 25450 ft | 278 kts | 189° |
| 2026-05-05 13:37 | 50.15639 | -77.79101 | 25451 ft | 278 kts | 189° |
| 2026-05-05 13:38 | 50.13709 | -77.79147 | 25450 ft | 277 kts | 189° |
| 2026-05-05 13:38 | 50.11780 | -77.79192 | 25456 ft | 277 kts | 189° |
| 2026-05-05 13:38 | 50.09854 | -77.79238 | 25454 ft | 276 kts | 189° |
| 2026-05-05 13:38 | 50.07938 | -77.79283 | 25454 ft | 276 kts | 189° |
| 2026-05-05 13:39 | 50.06019 | -77.79328 | 25451 ft | 275 kts | 189° |
| 2026-05-05 13:39 | 50.04128 | -77.79373 | 25454 ft | 274 kts | 189° |
| 2026-05-05 13:39 | 50.02220 | -77.79417 | 25451 ft | 274 kts | 189° |
| 2026-05-05 13:39 | 50.00313 | -77.79462 | 25449 ft | 273 kts | 190° |
| 2026-05-05 13:40 | 49.98413 | -77.79507 | 25446 ft | 273 kts | 190° |
| 2026-05-05 13:40 | 49.96518 | -77.79551 | 25446 ft | 272 kts | 190° |
| 2026-05-05 13:40 | 49.94629 | -77.79595 | 25445 ft | 271 kts | 190° |
| 2026-05-05 13:40 | 49.92768 | -77.79639 | 25441 ft | 270 kts | 190° |
| 2026-05-05 13:41 | 49.90884 | -77.79683 | 25442 ft | 270 kts | 191° |
| 2026-05-05 13:41 | 49.89008 | -77.79727 | 25438 ft | 269 kts | 191° |
| 2026-05-05 13:41 | 49.87140 | -77.79771 | 25438 ft | 268 kts | 191° |
| 2026-05-05 13:41 | 49.85272 | -77.79815 | 25433 ft | 268 kts | 191° |
| 2026-05-05 13:42 | 49.83413 | -77.79858 | 25434 ft | 267 kts | 191° |
| 2026-05-05 13:42 | 49.81559 | -77.79901 | 25440 ft | 266 kts | 191° |
| 2026-05-05 13:42 | 49.79707 | -77.79944 | 25443 ft | 265 kts | 192° |
| 2026-05-05 13:42 | 49.77867 | -77.79986 | 25440 ft | 264 kts | 192° |
| 2026-05-05 13:43 | 49.76030 | -77.80028 | 25444 ft | 264 kts | 192° |
| 2026-05-05 13:43 | 49.74198 | -77.80071 | 25445 ft | 263 kts | 192° |
| 2026-05-05 13:43 | 49.72370 | -77.80114 | 25444 ft | 262 kts | 192° |
| 2026-05-05 13:43 | 49.70550 | -77.80156 | 25445 ft | 261 kts | 192° |
| 2026-05-05 13:44 | 49.69351 | -77.80184 | 25443 ft | 260 kts | 193° |
| 2026-05-05 13:44 | 49.67536 | -77.80226 | 25443 ft | 260 kts | 193° |
| 2026-05-05 13:44 | 49.65150 | -77.80281 | 25446 ft | 258 kts | 193° |
| 2026-05-05 13:44 | 49.63356 | -77.80322 | 25446 ft | 258 kts | 193° |
| 2026-05-05 13:45 | 49.61565 | -77.80364 | 25448 ft | 257 kts | 193° |
| 2026-05-05 13:45 | 49.60356 | -77.80392 | 25450 ft | 256 kts | 193° |
| 2026-05-05 13:45 | 49.58577 | -77.80433 | 25451 ft | 255 kts | 193° |
| 2026-05-05 13:45 | 49.56803 | -77.80474 | 25457 ft | 255 kts | 194° |
| 2026-05-05 13:46 | 49.55037 | -77.80514 | 25458 ft | 254 kts | 194° |
| 2026-05-05 13:46 | 49.53295 | -77.80555 | 25460 ft | 253 kts | 194° |
| 2026-05-05 13:46 | 49.51539 | -77.80595 | 25464 ft | 252 kts | 194° |
| 2026-05-05 13:46 | 49.49782 | -77.80636 | 25470 ft | 251 kts | 194° |
| 2026-05-05 13:47 | 49.48039 | -77.80677 | 25418 ft | 252 kts | 194° |
| 2026-05-05 13:47 | 49.46251 | -77.80730 | 25140 ft | 260 kts | 194° |
| 2026-05-05 13:47 | 49.44431 | -77.80796 | 24872 ft | 263 kts | 194° |
| 2026-05-05 13:47 | 49.42597 | -77.80868 | 24601 ft | 263 kts | 195° |
| 2026-05-05 13:48 | 49.40763 | -77.80947 | 24336 ft | 263 kts | 195° |
| 2026-05-05 13:48 | 49.38933 | -77.81022 | 24069 ft | 264 kts | 195° |
| 2026-05-05 13:48 | 49.37094 | -77.81064 | 23754 ft | 265 kts | 194° |
| 2026-05-05 13:48 | 49.35245 | -77.81096 | 23395 ft | 265 kts | 194° |
| 2026-05-05 13:49 | 49.33422 | -77.81125 | 23033 ft | 265 kts | 195° |
| 2026-05-05 13:49 | 49.31577 | -77.81161 | 22609 ft | 266 kts | 194° |
| 2026-05-05 13:49 | 49.29716 | -77.81201 | 22196 ft | 268 kts | 194° |
| 2026-05-05 13:49 | 49.27845 | -77.81243 | 21785 ft | 271 kts | 194° |
| 2026-05-05 13:50 | 49.25952 | -77.81286 | 21377 ft | 273 kts | 193° |
| 2026-05-05 13:50 | 49.24041 | -77.81330 | 20970 ft | 275 kts | 193° |
| 2026-05-05 13:50 | 49.22117 | -77.81374 | 20572 ft | 278 kts | 192° |
| 2026-05-05 13:50 | 49.20174 | -77.81418 | 20182 ft | 281 kts | 192° |
| 2026-05-05 13:51 | 49.18211 | -77.81462 | 19790 ft | 283 kts | 191° |
| 2026-05-05 13:51 | 49.16233 | -77.81506 | 19416 ft | 286 kts | 191° |
| 2026-05-05 13:51 | 49.14234 | -77.81550 | 19039 ft | 288 kts | 190° |
| 2026-05-05 13:51 | 49.12221 | -77.81594 | 18672 ft | 290 kts | 189° |
| 2026-05-05 13:52 | 49.10196 | -77.81639 | 18302 ft | 292 kts | 189° |
| 2026-05-05 13:52 | 49.08199 | -77.81680 | 17944 ft | 290 kts | 188° |
| 2026-05-05 13:52 | 49.06179 | -77.81718 | 17557 ft | 290 kts | 188° |
| 2026-05-05 13:52 | 49.04164 | -77.81758 | 17138 ft | 290 kts | 188° |
| 2026-05-05 13:53 | 49.02126 | -77.81800 | 16726 ft | 289 kts | 188° |
| 2026-05-05 13:53 | 49.00144 | -77.81842 | 16327 ft | 288 kts | 188° |
| 2026-05-05 13:53 | 48.98142 | -77.81885 | 15931 ft | 287 kts | 188° |
| 2026-05-05 13:53 | 48.96143 | -77.81929 | 15532 ft | 287 kts | 189° |
| 2026-05-05 13:54 | 48.94150 | -77.81972 | 15145 ft | 286 kts | 188° |
| 2026-05-05 13:54 | 48.92166 | -77.82015 | 14762 ft | 285 kts | 189° |
| 2026-05-05 13:54 | 48.90186 | -77.82060 | 14384 ft | 284 kts | 189° |
| 2026-05-05 13:54 | 48.88221 | -77.82104 | 14013 ft | 282 kts | 189° |
| 2026-05-05 13:55 | 48.86257 | -77.82146 | 13640 ft | 280 kts | 189° |
| 2026-05-05 13:55 | 48.84328 | -77.82181 | 13263 ft | 275 kts | 189° |
| 2026-05-05 13:55 | 48.82425 | -77.82217 | 12854 ft | 271 kts | 189° |
| 2026-05-05 13:55 | 48.80549 | -77.82254 | 12442 ft | 268 kts | 189° |
| 2026-05-05 13:56 | 48.78683 | -77.82296 | 12044 ft | 267 kts | 189° |
| 2026-05-05 13:56 | 48.76833 | -77.82337 | 11646 ft | 266 kts | 189° |
| 2026-05-05 13:56 | 48.75006 | -77.82377 | 11261 ft | 265 kts | 189° |
| 2026-05-05 13:56 | 48.73166 | -77.82419 | 10865 ft | 264 kts | 189° |
| 2026-05-05 13:57 | 48.71327 | -77.82460 | 10487 ft | 263 kts | 189° |
| 2026-05-05 13:57 | 48.69493 | -77.82502 | 10106 ft | 263 kts | 189° |
| 2026-05-05 13:57 | 48.67660 | -77.82542 | 9734 ft | 263 kts | 189° |
| 2026-05-05 13:57 | 48.65830 | -77.82583 | 9364 ft | 263 kts | 189° |
| 2026-05-05 13:58 | 48.63991 | -77.82624 | 8947 ft | 263 kts | 188° |
| 2026-05-05 13:58 | 48.62181 | -77.82664 | 8552 ft | 263 kts | 188° |
| 2026-05-05 13:58 | 48.60350 | -77.82702 | 8155 ft | 263 kts | 188° |
| 2026-05-05 13:58 | 48.58518 | -77.82743 | 7754 ft | 263 kts | 188° |
| 2026-05-05 13:59 | 48.54853 | -77.82820 | 6971 ft | 263 kts | 188° |
| 2026-05-05 13:59 | 48.53018 | -77.82855 | 6602 ft | 263 kts | 188° |
| 2026-05-05 14:00 | 48.49353 | -77.82931 | 5847 ft | 263 kts | 188° |
| 2026-05-05 14:00 | 48.47521 | -77.82971 | 5449 ft | 263 kts | 187° |
| 2026-05-05 14:00 | 48.45706 | -77.83012 | 5148 ft | 258 kts | 187° |
| 2026-05-05 14:00 | 48.43925 | -77.83049 | 4882 ft | 254 kts | 187° |
| 2026-05-05 14:01 | 48.42168 | -77.83090 | 4631 ft | 252 kts | 186° |
| 2026-05-05 14:01 | 48.40444 | -77.83124 | 4381 ft | 250 kts | 186° |
| 2026-05-05 14:01 | 48.38704 | -77.83159 | 4118 ft | 250 kts | 185° |
| 2026-05-05 14:01 | 48.36969 | -77.83200 | 3845 ft | 249 kts | 185° |
| 2026-05-05 14:02 | 48.35232 | -77.83239 | 3574 ft | 248 kts | 185° |
| 2026-05-05 14:02 | 48.33506 | -77.83271 | 3311 ft | 248 kts | 185° |
| 2026-05-05 14:02 | 48.31786 | -77.83309 | 3063 ft | 246 kts | 185° |
| 2026-05-05 14:02 | 48.30104 | -77.83336 | 3035 ft | 238 kts | 185° |
| 2026-05-05 14:03 | 48.28465 | -77.83365 | 3016 ft | 232 kts | 185° |
| 2026-05-05 14:03 | 48.26883 | -77.83401 | 3008 ft | 228 kts | 185° |
| 2026-05-05 14:03 | 48.25308 | -77.83435 | 3007 ft | 225 kts | 185° |
| 2026-05-05 14:03 | 48.23748 | -77.83464 | 2997 ft | 224 kts | 184° |
| 2026-05-05 14:04 | 48.22202 | -77.83145 | 3003 ft | 225 kts | 172° |
| 2026-05-05 14:04 | 48.20670 | -77.82655 | 2998 ft | 224 kts | 174° |
| 2026-05-05 14:04 | 48.19131 | -77.82240 | 3006 ft | 224 kts | 174° |
| 2026-05-05 14:04 | 48.17600 | -77.81802 | 3001 ft | 224 kts | 174° |
| 2026-05-05 14:05 | 48.16071 | -77.81356 | 2986 ft | 223 kts | 174° |
| 2026-05-05 14:05 | 48.14528 | -77.80909 | 2789 ft | 231 kts | 174° |
| 2026-05-05 14:05 | 48.12948 | -77.80461 | 2459 ft | 230 kts | 173° |
| 2026-05-05 14:05 | 48.11447 | -77.80013 | 2161 ft | 211 kts | 173° |
| 2026-05-05 14:06 | 48.10061 | -77.79613 | 1836 ft | 193 kts | 173° |
| 2026-05-05 14:06 | 48.08836 | -77.79262 | 1583 ft | 163 kts | 173° |
| 2026-05-05 14:06 | 48.07856 | -77.78980 | 1363 ft | 124 kts | 173° |
| 2026-05-05 14:06 | 48.07049 | -77.78741 | 1210 ft | 115 kts | 173° |
| 2026-05-05 14:07 | 48.06312 | -77.78544 | 1108 ft | 95 kts | 163° |
| 2026-05-05 14:07 | 48.05942 | -77.78434 | 1107 ft | 33 kts | 167° |
| 2026-05-05 14:07 | 48.05692 | -77.78371 | 1102 ft | 35 kts | 170° |
| 2026-05-05 14:07 | 48.05477 | -77.78309 | 1102 ft | 27 kts | 168° |
| 2026-05-05 14:08 | 48.05327 | -77.78305 | 1102 ft | 15 kts | 237° |
| 2026-05-05 14:08 | 48.05306 | -77.78435 | 1105 ft | 11 kts | 258° |
| 2026-05-05 14:08 | 48.05287 | -77.78533 | 1105 ft | 12 kts | 228° |
| 2026-05-05 14:08 | 48.05249 | -77.78634 | 1107 ft | 9 kts | 297° |
| 2026-05-05 14:09 | 48.05257 | -77.78654 | 1103 ft | 0 kts | 302° |